Time;durP1;ratioP1;P1;durP2;ratioP2;P2;SDS_P1;SDS_P2;PMS_P1;PMS_P2;Temp;Humidity;BMP_temperature;BMP_pressure;BME280_temperature;BME280_humidity;BME280_pressure;Samples;Min_cycle;Max_cycle;Signal;HPM_P1;HPM_P2
2021/11/27 00:01:17;;;;;;;31.80;21.52;;;20.80;94.80;;;;;;4175005;28;20045;-71
2021/11/27 00:03:42;;;;;;;34.97;20.73;;;20.70;95.10;;;;;;4187491;28;20446;-72
2021/11/27 00:06:08;;;;;;;31.10;20.60;;;20.70;94.70;;;;;;4178385;28;20474;-71
2021/11/27 00:08:33;;;;;;;28.52;20.30;;;20.70;94.60;;;;;;4169639;28;20114;-71
2021/11/27 00:10:58;;;;;;;33.15;20.60;;;20.70;94.70;;;;;;4170529;28;20150;-72
2021/11/27 00:13:23;;;;;;;30.55;21.77;;;20.90;94.40;;;;;;4181332;28;20579;-72
2021/11/27 00:15:48;;;;;;;41.20;26.00;;;20.90;94.30;;;;;;4182619;28;20134;-72
2021/11/27 00:18:13;;;;;;;37.92;22.98;;;21.00;94.20;;;;;;4169731;28;20468;-71
2021/11/27 00:20:51;;;;;;;38.47;25.77;;;21.10;93.90;;;;;;4170378;28;20118;-71
2021/11/27 00:23:15;;;;;;;36.58;24.25;;;20.90;94.30;;;;;;4176732;28;20060;-71
2021/11/27 00:25:41;;;;;;;40.72;26.08;;;21.10;93.90;;;;;;4178452;28;20055;-71
2021/11/27 00:28:05;;;;;;;41.35;28.08;;;21.20;93.60;;;;;;4175385;28;20052;-71
2021/11/27 00:30:32;;;;;;;39.97;24.40;;;21.20;93.60;;;;;;4173456;28;20175;-71
2021/11/27 00:32:56;;;;;;;31.63;22.00;;;21.20;93.50;;;;;;4174808;28;20045;-71
2021/11/27 00:35:21;;;;;;;31.40;22.05;;;21.10;93.70;;;;;;4169672;28;20317;-71
2021/11/27 00:37:47;;;;;;;31.52;20.52;;;21.00;93.80;;;;;;4180796;28;20430;-71
2021/11/27 00:40:12;;;;;;;30.17;21.00;;;21.10;93.20;;;;;;4169906;28;20106;-72
2021/11/27 00:42:38;;;;;;;48.92;21.67;;;21.30;93.40;;;;;;4180432;28;20526;-74
2021/11/27 00:45:10;;;;;;;26.88;20.13;;;21.30;93.30;;;;;;4175143;28;20080;-73
2021/11/27 00:47:34;;;;;;;27.88;19.42;;;21.40;93.20;;;;;;4172007;28;20057;-71
2021/11/27 00:49:59;;;;;;;26.05;18.17;;;21.40;93.10;;;;;;4171314;28;20076;-73
2021/11/27 00:52:23;;;;;;;26.25;18.13;;;21.30;93.10;;;;;;4174367;28;20044;-73
2021/11/27 00:54:48;;;;;;;26.10;16.95;;;21.30;93.40;;;;;;4173041;28;20052;-73
2021/11/27 00:57:12;;;;;;;25.08;16.25;;;21.50;93.10;;;;;;4159901;28;20497;-74
2021/11/27 00:59:37;;;;;;;23.35;15.77;;;21.60;92.60;;;;;;4170128;28;20048;-73
2021/11/27 01:02:02;;;;;;;22.95;14.73;;;21.60;92.40;;;;;;4161799;28;20061;-74
2021/11/27 01:04:27;;;;;;;20.38;13.73;;;21.70;92.30;;;;;;4168387;28;20511;-73
2021/11/27 01:06:51;;;;;;;21.70;14.93;;;21.80;92.00;;;;;;4158736;28;20156;-72
2021/11/27 01:09:16;;;;;;;21.73;14.55;;;21.80;91.80;;;;;;4164648;28;20094;-72
2021/11/27 01:11:50;;;;;;;23.63;14.02;;;21.90;91.70;;;;;;4167656;28;21143;-73
2021/11/27 01:14:17;;;;;;;24.20;13.57;;;22.00;91.70;;;;;;4183314;28;20060;-73
2021/11/27 01:16:43;;;;;;;16.83;13.52;;;22.10;91.70;;;;;;4176677;28;20071;-74
2021/11/27 01:19:07;;;;;;;23.65;15.23;;;22.10;91.70;;;;;;4166657;28;20053;-73
2021/11/27 01:21:33;;;;;;;21.15;14.68;;;22.10;91.60;;;;;;4174721;28;20104;-72
2021/11/27 01:23:59;;;;;;;19.10;13.73;;;22.20;91.40;;;;;;4159650;28;20050;-73
2021/11/27 01:26:23;;;;;;;20.90;13.13;;;22.30;91.10;;;;;;4165051;28;20415;-73
2021/11/27 01:28:48;;;;;;;16.40;11.82;;;22.30;90.60;;;;;;4169590;28;20060;-75
2021/11/27 01:31:12;;;;;;;17.70;11.48;;;22.40;90.10;;;;;;4158519;28;20475;-74
2021/11/27 01:33:36;;;;;;;18.67;10.95;;;22.40;90.10;;;;;;4176690;28;20519;-74
2021/11/27 01:36:01;;;;;;;14.75;10.43;;;22.40;89.70;;;;;;4176556;28;20045;-74
2021/11/27 01:38:25;;;;;;;15.95;10.57;;;22.50;88.80;;;;;;4166858;28;20602;-74
2021/11/27 01:40:50;;;;;;;13.52;9.38;;;22.60;89.00;;;;;;4170802;28;20092;-74
2021/11/27 01:43:14;;;;;;;13.50;9.38;;;22.70;88.40;;;;;;4175689;28;20052;-74
2021/11/27 01:45:39;;;;;;;14.40;8.93;;;22.70;87.40;;;;;;4174283;28;20388;-74
2021/11/27 01:48:06;;;;;;;15.50;9.50;;;22.80;86.50;;;;;;4155500;28;20151;-74
2021/11/27 01:50:33;;;;;;;13.32;9.40;;;22.80;86.90;;;;;;4172388;28;20151;-75
2021/11/27 01:52:58;;;;;;;16.35;10.25;;;22.90;87.00;;;;;;4174869;28;20059;-74
2021/11/27 01:55:23;;;;;;;16.42;9.93;;;22.90;87.20;;;;;;4163702;28;20053;-75
2021/11/27 01:57:48;;;;;;;19.08;10.25;;;22.90;86.60;;;;;;4157734;28;20554;-75
2021/11/27 02:00:14;;;;;;;20.13;10.23;;;23.00;87.30;;;;;;4155262;28;20048;-75
2021/11/27 02:02:38;;;;;;;17.55;9.57;;;23.00;85.70;;;;;;4169584;28;20100;-75
2021/11/27 02:05:04;;;;;;;17.83;8.82;;;23.10;85.50;;;;;;4154591;28;20049;-74
2021/11/27 02:07:28;;;;;;;17.38;9.02;;;23.20;85.40;;;;;;4173189;28;20656;-75
2021/11/27 02:09:53;;;;;;;16.55;8.98;;;23.20;85.70;;;;;;4171634;28;20049;-76
2021/11/27 02:12:17;;;;;;;13.75;7.93;;;23.30;85.90;;;;;;4162006;28;20456;-75
2021/11/27 02:14:42;;;;;;;13.60;7.32;;;23.40;84.20;;;;;;4159277;28;20046;-75
2021/11/27 02:17:14;;;;;;;13.57;7.50;;;23.50;82.80;;;;;;4154198;28;20053;-75
2021/11/27 02:19:42;;;;;;;10.85;7.35;;;23.50;83.40;;;;;;4154020;28;20053;-74
2021/11/27 02:22:07;;;;;;;13.23;6.90;;;23.60;83.10;;;;;;4157510;28;20751;-74
2021/11/27 02:24:40;;;;;;;13.30;6.00;;;23.60;81.90;;;;;;4156930;28;20523;-74
2021/11/27 02:27:05;;;;;;;9.63;5.90;;;23.70;81.10;;;;;;4158848;28;20085;-75
2021/11/27 02:29:31;;;;;;;11.40;5.60;;;23.70;81.10;;;;;;4158468;28;20150;-75
2021/11/27 02:31:56;;;;;;;9.50;6.22;;;23.80;80.10;;;;;;4165986;28;20397;-75
2021/11/27 02:34:23;;;;;;;9.52;5.63;;;23.80;80.30;;;;;;4173824;28;20060;-75
2021/11/27 02:36:51;;;;;;;7.25;5.63;;;23.90;79.50;;;;;;4149993;28;20176;-76
2021/11/27 02:39:15;;;;;;;8.35;5.63;;;24.00;80.70;;;;;;4167805;28;20111;-75
2021/11/27 02:41:39;;;;;;;11.35;6.30;;;24.10;80.60;;;;;;4168653;28;20064;-75
2021/11/27 02:44:04;;;;;;;10.98;6.40;;;24.10;79.10;;;;;;4163784;28;20134;-76
2021/11/27 02:46:28;;;;;;;15.88;6.10;;;24.10;78.30;;;;;;4176522;28;20076;-75
2021/11/27 02:48:53;;;;;;;31.55;7.28;;;24.20;78.40;;;;;;4156300;28;20649;-75
2021/11/27 02:51:18;;;;;;;11.82;6.13;;;24.30;77.80;;;;;;4164989;28;20053;-75
2021/11/27 02:53:42;;;;;;;9.93;5.97;;;24.30;78.20;;;;;;4176132;28;20053;-75
2021/11/27 02:56:07;;;;;;;13.07;6.15;;;24.40;77.50;;;;;;4164179;28;20045;-74
2021/11/27 02:58:32;;;;;;;11.32;6.38;;;24.50;77.00;;;;;;4168142;28;20052;-75
2021/11/27 03:00:58;;;;;;;7.53;5.43;;;24.50;77.70;;;;;;4161925;28;20057;-75
2021/11/27 03:03:24;;;;;;;7.95;5.30;;;24.70;76.70;;;;;;4161337;28;20519;-75
2021/11/27 03:05:49;;;;;;;11.43;6.05;;;24.70;76.30;;;;;;4174966;28;20068;-75
2021/11/27 03:08:13;;;;;;;8.45;4.57;;;24.80;77.10;;;;;;4168621;28;20087;-74
2021/11/27 03:10:37;;;;;;;7.38;5.25;;;24.80;76.10;;;;;;4170409;28;20080;-76
2021/11/27 03:13:02;;;;;;;12.38;5.22;;;24.90;76.70;;;;;;4172664;28;20454;-75
2021/11/27 03:15:26;;;;;;;10.30;4.07;;;25.00;76.40;;;;;;4158401;28;20046;-75
2021/11/27 03:17:50;;;;;;;23.25;5.30;;;24.90;75.10;;;;;;4162940;28;20085;-74
2021/11/27 03:20:16;;;;;;;10.35;4.45;;;24.90;74.00;;;;;;4164931;28;20519;-75
2021/11/27 03:22:40;;;;;;;12.63;4.60;;;25.00;73.30;;;;;;4170106;28;20131;-75
2021/11/27 03:25:06;;;;;;;9.98;4.97;;;25.00;74.70;;;;;;4154473;28;20500;-75
2021/11/27 03:27:30;;;;;;;9.13;4.18;;;25.10;73.60;;;;;;4157399;28;20061;-75
2021/11/27 03:29:56;;;;;;;5.82;4.25;;;25.10;73.00;;;;;;4171316;28;20505;-74
2021/11/27 03:32:21;;;;;;;7.93;4.25;;;25.20;74.10;;;;;;4172330;28;20076;-75
2021/11/27 03:35:02;;;;;;;6.78;4.22;;;25.30;72.60;;;;;;4156004;28;20498;-75
2021/11/27 03:37:37;;;;;;;5.88;3.63;;;25.40;72.40;;;;;;4155162;28;20049;-74
2021/11/27 03:40:01;;;;;;;8.05;4.32;;;25.30;73.20;;;;;;4168527;28;20122;-73
2021/11/27 03:42:26;;;;;;;11.15;4.30;;;25.40;72.90;;;;;;4158398;28;20053;-74
2021/11/27 03:44:51;;;;;;;9.43;4.15;;;25.50;72.90;;;;;;4158696;28;20056;-75
2021/11/27 03:47:17;;;;;;;10.02;4.85;;;25.70;72.30;;;;;;4157834;28;20057;-75
2021/11/27 03:49:41;;;;;;;6.85;4.28;;;25.70;72.30;;;;;;4165130;28;20529;-74
2021/11/27 03:52:09;;;;;;;10.60;5.38;;;25.70;71.70;;;;;;4174710;28;20140;-74
2021/11/27 03:54:36;;;;;;;8.50;4.80;;;25.70;72.40;;;;;;4157925;28;20037;-75
2021/11/27 03:57:00;;;;;;;15.65;4.55;;;25.80;71.40;;;;;;4175232;28;20087;-74
2021/11/27 03:59:25;;;;;;;11.65;4.32;;;25.80;72.10;;;;;;4150508;28;20088;-73
2021/11/27 04:01:50;;;;;;;7.63;4.90;;;25.70;72.10;;;;;;4172209;28;20052;-74
2021/11/27 04:04:15;;;;;;;7.43;4.15;;;25.70;72.20;;;;;;4157289;28;20089;-73
2021/11/27 04:06:40;;;;;;;11.32;4.22;;;26.00;72.70;;;;;;4160202;28;20222;-73
2021/11/27 04:09:06;;;;;;;6.75;4.20;;;26.00;72.20;;;;;;4165070;28;20060;-72
2021/11/27 04:11:31;;;;;;;7.03;4.35;;;26.00;71.50;;;;;;4162364;28;20083;-73
2021/11/27 04:13:59;;;;;;;7.47;4.47;;;26.10;71.20;;;;;;4160274;28;20152;-72
2021/11/27 04:16:24;;;;;;;6.85;4.80;;;26.20;71.20;;;;;;4157154;28;20049;-73
2021/11/27 04:18:48;;;;;;;7.05;4.65;;;26.20;71.50;;;;;;4163432;28;20503;-72
2021/11/27 04:21:14;;;;;;;11.02;4.72;;;26.20;71.00;;;;;;4175875;28;20053;-73
2021/11/27 04:23:39;;;;;;;9.68;4.40;;;26.20;71.20;;;;;;4173853;28;20135;-73
2021/11/27 04:26:08;;;;;;;8.93;4.15;;;26.40;70.50;;;;;;4165184;28;20049;-73
2021/11/27 04:28:32;;;;;;;11.55;4.20;;;26.50;70.40;;;;;;4165567;28;20439;-71
2021/11/27 04:30:56;;;;;;;8.45;4.55;;;26.40;71.50;;;;;;4171508;28;20102;-72
2021/11/27 04:33:22;;;;;;;9.73;4.25;;;26.40;71.10;;;;;;4159807;28;20080;-72
2021/11/27 04:35:48;;;;;;;8.60;4.10;;;26.40;71.50;;;;;;4151460;28;20034;-72
2021/11/27 04:38:17;;;;;;;11.23;4.65;;;26.40;71.80;;;;;;4156223;28;20401;-74
2021/11/27 04:40:41;;;;;;;9.57;4.30;;;26.50;71.50;;;;;;4161881;28;20048;-75
2021/11/27 04:43:08;;;;;;;8.07;4.90;;;26.60;71.20;;;;;;4156967;28;20053;-74
2021/11/27 04:45:34;;;;;;;10.32;5.00;;;26.60;71.40;;;;;;4158290;28;20049;-73
2021/11/27 04:47:39;;;;;;;7.47;4.60;;;26.60;70.30;;;;;;4195097;28;20804;-75
2021/11/27 04:49:48;;;;;;;7.13;4.78;;;26.80;71.50;;;;;;4163207;28;20061;-73
2021/11/27 04:51:55;;;;;;;8.55;5.03;;;26.80;70.00;;;;;;4185868;28;20439;-74
2021/11/27 04:53:59;;;;;;;9.40;5.32;;;26.80;70.40;;;;;;4168448;28;20044;-74
2021/11/27 04:56:07;;;;;;;11.32;5.50;;;26.70;71.40;;;;;;4186486;28;20044;-73
2021/11/27 04:58:12;;;;;;;8.30;5.20;;;26.80;72.00;;;;;;4168284;28;20455;-72
2021/11/27 05:00:21;;;;;;;8.20;4.85;;;26.90;71.00;;;;;;4167405;28;20078;-75
2021/11/27 05:02:27;;;;;;;10.68;5.15;;;26.90;71.20;;;;;;4170506;28;20136;-72
2021/11/27 05:04:32;;;;;;;8.35;5.15;;;26.90;70.40;;;;;;4186861;28;20055;-73
2021/11/27 05:06:38;;;;;;;8.90;4.88;;;26.90;70.30;;;;;;4169599;28;20098;-72
2021/11/27 05:08:43;;;;;;;10.57;5.22;;;26.90;70.50;;;;;;4165291;28;20099;-73
2021/11/27 05:10:53;;;;;;;10.43;5.70;;;26.90;71.00;;;;;;4167184;28;20491;-72
2021/11/27 05:12:58;;;;;;;8.20;5.43;;;26.90;70.60;;;;;;4169870;28;20438;-73
2021/11/27 05:15:04;;;;;;;6.65;5.47;;;26.90;70.40;;;;;;4170162;28;20048;-73
2021/11/27 05:17:10;;;;;;;7.38;5.28;;;26.90;70.10;;;;;;4168732;28;20454;-74
2021/11/27 05:19:15;;;;;;;13.95;5.13;;;26.90;70.90;;;;;;4165062;28;20102;-73
2021/11/27 05:21:32;;;;;;;8.40;5.57;;;27.00;70.70;;;;;;4167464;28;20069;-73
2021/11/27 05:23:37;;;;;;;8.15;5.05;;;27.00;70.60;;;;;;4168942;28;20435;-73
2021/11/27 05:25:59;;;;;;;12.90;5.70;;;27.10;70.30;;;;;;4170109;28;20049;-73
2021/11/27 05:28:23;;;;;;;7.10;5.25;;;27.10;70.20;;;;;;4168325;28;20051;-74
2021/11/27 05:30:40;;;;;;;11.80;5.43;;;27.20;70.80;;;;;;4188556;28;20175;-73
2021/11/27 05:35:09;;;;;;;11.48;5.50;;;27.30;70.20;;;;;;4167955;28;20106;-70
2021/11/27 05:37:14;;;;;;;13.25;5.75;;;27.30;70.70;;;;;;4168438;28;20522;-70
2021/11/27 05:39:19;;;;;;;10.05;4.97;;;27.30;70.30;;;;;;4177121;28;20123;-69
2021/11/27 05:41:26;;;;;;;12.63;5.72;;;27.40;68.80;;;;;;4186562;28;20427;-74
2021/11/27 05:43:33;;;;;;;10.18;5.75;;;27.60;68.70;;;;;;4176961;28;20063;-75
2021/11/27 05:45:40;;;;;;;7.50;5.20;;;27.60;68.90;;;;;;4175986;28;20578;-74
2021/11/27 05:47:45;;;;;;;13.82;5.38;;;27.50;68.40;;;;;;4166184;28;20083;-72
2021/11/27 05:49:55;;;;;;;10.30;5.10;;;27.70;68.90;;;;;;4165866;28;20056;-74
2021/11/27 05:52:08;;;;;;;10.27;4.70;;;27.60;68.10;;;;;;4173118;28;20194;-74
2021/11/27 05:54:13;;;;;;;9.38;5.07;;;27.60;67.90;;;;;;4186831;28;20068;-74
2021/11/27 05:56:18;;;;;;;9.15;4.88;;;27.60;67.50;;;;;;4194782;28;20647;-74
2021/11/27 05:58:22;;;;;;;11.32;5.28;;;27.60;68.30;;;;;;4179136;28;20113;-74
2021/11/27 06:00:27;;;;;;;9.07;4.80;;;27.70;69.20;;;;;;4183960;28;20684;-74
2021/11/27 06:02:32;;;;;;;9.13;4.95;;;27.60;68.70;;;;;;4199975;28;20076;-73
2021/11/27 06:04:37;;;;;;;11.68;5.93;;;27.60;68.40;;;;;;4202030;28;20045;-73
2021/11/27 06:06:41;;;;;;;12.45;5.47;;;27.60;68.80;;;;;;4208421;28;20143;-73
2021/11/27 06:08:46;;;;;;;9.60;5.85;;;27.80;69.50;;;;;;4148063;28;20228;-73
2021/11/27 06:10:51;;;;;;;6.40;5.00;;;27.80;68.70;;;;;;4161782;28;20073;-73
2021/11/27 06:12:55;;;;;;;8.75;4.97;;;27.80;67.80;;;;;;4153408;28;20119;-73
2021/11/27 06:15:00;;;;;;;8.40;5.60;;;27.70;67.70;;;;;;4163670;28;20049;-73
2021/11/27 06:17:06;;;;;;;7.05;5.18;;;27.70;68.70;;;;;;4162996;28;20041;-73
2021/11/27 06:19:11;;;;;;;8.65;5.45;;;27.80;67.90;;;;;;4146841;28;20045;-73
2021/11/27 06:21:20;;;;;;;7.97;4.95;;;27.90;68.20;;;;;;4160023;28;20075;-73
2021/11/27 06:23:25;;;;;;;9.30;5.43;;;27.90;67.90;;;;;;4156318;28;20061;-74
2021/11/27 06:25:37;;;;;;;7.45;5.65;;;28.00;67.20;;;;;;4160247;28;20085;-72
2021/11/27 06:27:42;;;;;;;7.43;5.55;;;27.90;67.00;;;;;;4145677;28;20057;-72
2021/11/27 06:29:46;;;;;;;7.95;5.15;;;27.90;67.10;;;;;;4152035;28;20061;-72
2021/11/27 06:31:50;;;;;;;8.05;5.25;;;27.90;68.00;;;;;;4155611;28;20048;-72
2021/11/27 06:33:55;;;;;;;8.35;5.35;;;28.10;69.10;;;;;;4162813;28;20048;-73
2021/11/27 06:36:06;;;;;;;8.30;4.47;;;28.10;68.70;;;;;;4160612;28;20048;-72
2021/11/27 06:38:11;;;;;;;9.48;4.78;;;28.00;67.70;;;;;;4156091;28;20114;-72
2021/11/27 06:40:16;;;;;;;7.22;4.53;;;28.10;67.90;;;;;;4162790;28;20419;-72
2021/11/27 06:42:40;;;;;;;7.68;5.00;;;28.00;67.40;;;;;;4189125;28;20052;-72
2021/11/27 06:44:57;;;;;;;10.75;4.57;;;28.00;68.30;;;;;;4185404;28;20041;-73
2021/11/27 06:47:05;;;;;;;19.73;5.10;;;28.00;67.90;;;;;;4177784;28;20045;-74
2021/11/27 06:49:10;;;;;;;8.80;4.95;;;28.10;67.10;;;;;;4179708;28;20045;-72
2021/11/27 06:51:16;;;;;;;10.18;5.20;;;28.00;67.60;;;;;;4193136;28;20043;-72
2021/11/27 06:53:20;;;;;;;11.40;5.70;;;28.10;68.10;;;;;;4194255;28;20114;-72
2021/11/27 06:55:25;;;;;;;9.02;5.32;;;28.20;67.20;;;;;;4193059;28;20044;-73
2021/11/27 06:57:30;;;;;;;8.60;5.03;;;28.10;66.90;;;;;;4191042;28;20037;-72
2021/11/27 06:59:36;;;;;;;7.30;5.30;;;28.10;66.50;;;;;;4184326;28;20114;-72
2021/11/27 07:01:52;;;;;;;11.82;5.05;;;28.10;68.00;;;;;;4186466;28;20774;-72
2021/11/27 07:04:10;;;;;;;12.30;5.00;;;28.10;68.40;;;;;;4190675;28;20040;-72
2021/11/27 07:06:27;;;;;;;7.85;5.00;;;28.20;68.10;;;;;;4191252;28;20044;-72
2021/11/27 07:08:32;;;;;;;8.65;4.95;;;28.20;67.60;;;;;;4166930;28;20048;-71
2021/11/27 07:10:55;;;;;;;9.77;5.28;;;28.20;67.40;;;;;;4188521;28;20076;-71
2021/11/27 07:13:01;;;;;;;10.43;5.32;;;28.20;67.30;;;;;;4172034;28;20055;-72
2021/11/27 07:15:07;;;;;;;9.05;5.97;;;28.30;67.10;;;;;;4175053;28;20045;-73
2021/11/27 07:17:11;;;;;;;9.43;4.93;;;28.30;66.80;;;;;;4190527;28;20055;-74
2021/11/27 07:19:15;;;;;;;7.97;4.72;;;28.40;65.90;;;;;;4181224;28;20032;-72
2021/11/27 07:21:20;;;;;;;6.93;4.50;;;28.40;65.70;;;;;;4184250;28;20364;-73
2021/11/27 07:23:25;;;;;;;6.95;5.10;;;28.30;66.30;;;;;;4191497;28;20461;-72
2021/11/27 07:25:31;;;;;;;10.18;5.20;;;28.30;66.80;;;;;;4190445;28;20777;-73
2021/11/27 07:27:55;;;;;;;6.45;4.60;;;28.30;66.80;;;;;;4186628;28;20071;-73
2021/11/27 07:30:00;;;;;;;8.02;4.90;;;28.40;66.00;;;;;;4186139;28;20496;-73
2021/11/27 07:32:06;;;;;;;10.43;5.18;;;28.30;66.00;;;;;;4168348;28;20049;-72
2021/11/27 07:34:11;;;;;;;10.15;5.00;;;28.40;66.80;;;;;;4194556;28;20510;-73
2021/11/27 07:36:15;;;;;;;8.35;4.93;;;28.50;67.70;;;;;;4189709;28;20041;-73
2021/11/27 07:38:20;;;;;;;7.82;4.55;;;28.50;66.80;;;;;;4181776;28;20401;-73
2021/11/27 07:40:25;;;;;;;12.27;5.35;;;28.50;66.50;;;;;;4182033;28;20049;-73
2021/11/27 07:42:30;;;;;;;9.00;4.78;;;28.50;66.90;;;;;;4186961;28;20052;-73
2021/11/27 07:44:54;;;;;;;8.57;5.00;;;28.50;66.80;;;;;;4188697;28;20041;-72
2021/11/27 07:47:11;;;;;;;8.98;4.88;;;28.50;66.70;;;;;;4189601;28;20470;-73
2021/11/27 07:49:27;;;;;;;10.52;5.25;;;28.50;66.20;;;;;;4178280;28;20076;-73
2021/11/27 07:51:52;;;;;;;11.52;5.22;;;28.60;66.50;;;;;;4186647;28;20115;-71
2021/11/27 07:54:00;;;;;;;8.02;5.00;;;28.50;66.40;;;;;;4190964;28;20056;-71
2021/11/27 07:56:08;;;;;;;9.27;5.60;;;28.50;66.60;;;;;;4190700;28;20044;-71
2021/11/27 07:58:13;;;;;;;9.85;6.03;;;28.60;65.70;;;;;;4182636;28;20044;-71
2021/11/27 08:00:18;;;;;;;8.40;5.57;;;28.50;66.20;;;;;;4183002;28;20048;-71
2021/11/27 08:02:22;;;;;;;12.45;5.47;;;28.50;65.80;;;;;;4188448;28;20063;-71
2021/11/27 08:04:27;;;;;;;14.23;5.25;;;28.50;65.90;;;;;;4184400;28;20511;-72
2021/11/27 08:06:31;;;;;;;11.95;5.28;;;28.40;66.60;;;;;;4190918;28;20052;-71
2021/11/27 08:08:37;;;;;;;7.03;5.50;;;28.50;66.90;;;;;;4180905;28;20585;-71
2021/11/27 08:10:43;;;;;;;8.07;5.55;;;28.60;66.80;;;;;;4188210;28;20082;-71
2021/11/27 08:12:48;;;;;;;11.57;5.60;;;28.50;66.30;;;;;;4188379;28;20166;-71
2021/11/27 08:14:53;;;;;;;8.32;5.38;;;28.50;65.80;;;;;;4187981;28;20048;-71
2021/11/27 08:17:00;;;;;;;11.30;5.85;;;28.50;65.70;;;;;;4188642;28;20040;-71
2021/11/27 08:19:06;;;;;;;7.15;5.45;;;28.40;65.90;;;;;;4179039;28;20082;-71
2021/11/27 08:21:11;;;;;;;10.02;6.15;;;28.40;65.70;;;;;;4190174;28;20078;-71
2021/11/27 08:23:24;;;;;;;9.50;5.72;;;28.40;64.70;;;;;;4169103;28;20044;-71
2021/11/27 08:25:28;;;;;;;9.40;5.82;;;28.50;65.60;;;;;;4171390;28;20191;-71
2021/11/27 08:27:37;;;;;;;9.65;6.15;;;28.50;65.50;;;;;;4167299;28;20076;-71
2021/11/27 08:29:41;;;;;;;10.13;6.05;;;28.50;65.30;;;;;;4165297;28;20045;-72
2021/11/27 08:31:47;;;;;;;11.63;6.95;;;28.50;65.70;;;;;;4170850;28;20626;-72
2021/11/27 08:33:51;;;;;;;12.75;7.03;;;28.50;65.30;;;;;;4171749;28;20148;-73
2021/11/27 08:35:56;;;;;;;12.23;6.05;;;28.50;65.60;;;;;;4170745;28;20049;-72
2021/11/27 08:38:01;;;;;;;9.32;5.70;;;28.50;65.50;;;;;;4165871;28;20077;-72
2021/11/27 08:40:06;;;;;;;11.60;6.07;;;28.50;65.80;;;;;;4165382;28;20462;-73
2021/11/27 08:42:11;;;;;;;11.48;6.07;;;28.40;65.70;;;;;;4172522;28;20044;-72
2021/11/27 08:44:15;;;;;;;7.25;5.50;;;28.40;65.20;;;;;;4170987;28;20511;-73
2021/11/27 08:46:20;;;;;;;8.60;6.15;;;28.40;65.70;;;;;;4171914;28;20060;-71
2021/11/27 08:48:24;;;;;;;11.52;6.03;;;28.40;66.20;;;;;;4164392;28;20120;-72
2021/11/27 08:50:28;;;;;;;10.95;6.18;;;28.40;66.40;;;;;;4170352;28;20458;-71
2021/11/27 08:52:33;;;;;;;8.05;6.35;;;28.40;66.20;;;;;;4171290;28;20053;-72
2021/11/27 08:54:38;;;;;;;7.68;6.10;;;28.40;65.90;;;;;;4179825;28;20123;-71
2021/11/27 08:56:43;;;;;;;9.95;6.00;;;28.40;66.00;;;;;;4188226;28;20045;-72
2021/11/27 08:58:47;;;;;;;7.90;5.72;;;28.40;66.30;;;;;;4182257;28;20078;-71
2021/11/27 09:00:52;;;;;;;8.88;6.57;;;28.40;66.00;;;;;;4186706;28;20063;-72
2021/11/27 09:02:58;;;;;;;10.95;5.45;;;28.40;66.40;;;;;;4188270;28;20056;-72
2021/11/27 09:05:07;;;;;;;8.80;5.22;;;28.30;66.30;;;;;;4187825;28;20076;-72
2021/11/27 09:07:12;;;;;;;10.10;5.93;;;28.30;66.20;;;;;;4188341;28;20658;-72
2021/11/27 09:09:19;;;;;;;7.85;5.75;;;28.30;66.10;;;;;;4177397;28;20474;-71
2021/11/27 09:11:24;;;;;;;8.95;5.50;;;28.30;66.10;;;;;;4189077;28;20048;-72
2021/11/27 09:13:29;;;;;;;11.55;6.32;;;28.30;66.00;;;;;;4187906;28;20094;-71
2021/11/27 09:15:34;;;;;;;13.88;7.10;;;28.30;66.20;;;;;;4189153;28;20438;-72
2021/11/27 09:17:39;;;;;;;11.43;6.63;;;28.30;66.50;;;;;;4186565;28;20406;-72
2021/11/27 09:19:44;;;;;;;10.98;7.15;;;28.30;66.70;;;;;;4182716;28;20052;-72
2021/11/27 09:21:50;;;;;;;16.70;7.53;;;28.30;67.10;;;;;;4188660;28;20088;-73
2021/11/27 09:23:54;;;;;;;14.98;9.18;;;28.20;66.70;;;;;;4187230;28;20131;-73
2021/11/27 09:25:59;;;;;;;17.67;8.48;;;28.20;66.90;;;;;;4188780;28;20554;-73
2021/11/27 09:28:04;;;;;;;12.77;8.18;;;28.20;67.30;;;;;;4181870;28;20881;-72
2021/11/27 09:30:10;;;;;;;11.98;8.55;;;28.20;67.60;;;;;;4185620;28;20049;-73
2021/11/27 09:32:15;;;;;;;15.18;8.70;;;28.10;67.10;;;;;;4188380;28;20051;-73
2021/11/27 09:34:19;;;;;;;18.02;11.10;;;28.10;67.30;;;;;;4189791;28;20040;-74
2021/11/27 09:36:25;;;;;;;15.57;10.38;;;28.10;67.20;;;;;;4188840;28;20360;-73
2021/11/27 09:38:29;;;;;;;13.60;9.45;;;28.10;67.60;;;;;;4183423;28;20051;-72
2021/11/27 09:40:39;;;;;;;14.48;8.90;;;28.00;67.50;;;;;;4191155;28;20169;-73
2021/11/27 09:42:45;;;;;;;13.80;9.00;;;28.00;67.80;;;;;;4194740;28;20047;-72
2021/11/27 09:44:53;;;;;;;15.00;8.38;;;28.00;67.80;;;;;;4191772;28;20545;-72
2021/11/27 09:46:58;;;;;;;14.82;8.10;;;28.00;67.80;;;;;;4191048;28;20458;-75
2021/11/27 09:49:08;;;;;;;13.93;8.18;;;27.90;68.10;;;;;;4164783;28;20057;-71
2021/11/27 09:51:15;;;;;;;10.73;8.00;;;27.90;68.20;;;;;;4187247;28;20151;-73
2021/11/27 09:53:21;;;;;;;18.98;8.95;;;27.90;68.40;;;;;;4189373;28;20056;-72
2021/11/27 09:55:27;;;;;;;15.82;8.82;;;27.90;68.40;;;;;;4193137;28;20176;-73
2021/11/27 09:57:31;;;;;;;11.63;8.35;;;27.90;68.40;;;;;;4188407;28;20044;-71
2021/11/27 09:59:39;;;;;;;13.25;8.70;;;27.80;68.70;;;;;;4180903;28;20048;-72
2021/11/27 10:01:46;;;;;;;16.08;8.90;;;27.80;68.80;;;;;;4188594;28;20044;-72
2021/11/27 10:04:00;;;;;;;14.70;8.50;;;27.80;68.50;;;;;;4188324;28;20057;-71
2021/11/27 10:06:05;;;;;;;24.38;9.55;;;27.80;68.80;;;;;;4172671;28;20085;-71
2021/11/27 10:08:13;;;;;;;18.10;9.60;;;27.80;68.60;;;;;;4165765;28;20048;-72
2021/11/27 10:10:18;;;;;;;23.13;9.88;;;27.70;68.70;;;;;;4165476;28;20770;-72
2021/11/27 10:12:23;;;;;;;22.17;11.32;;;27.60;68.80;;;;;;4153440;28;20091;-71
2021/11/27 10:14:28;;;;;;;23.08;11.18;;;27.60;68.90;;;;;;4171778;28;20100;-71
2021/11/27 10:16:37;;;;;;;19.52;10.45;;;27.50;69.00;;;;;;4169679;28;20048;-71
2021/11/27 10:18:41;;;;;;;16.63;10.07;;;27.50;68.90;;;;;;4163657;28;20866;-71
2021/11/27 10:20:46;;;;;;;18.52;11.50;;;27.50;68.90;;;;;;4157490;28;20064;-71
2021/11/27 10:22:54;;;;;;;19.25;11.52;;;27.50;69.10;;;;;;4156125;28;20347;-71
2021/11/27 10:24:58;;;;;;;21.77;13.15;;;27.50;69.30;;;;;;4155796;28;20072;-70
2021/11/27 10:27:05;;;;;;;25.25;14.68;;;27.50;69.30;;;;;;4154645;28;20049;-70
2021/11/27 10:29:29;;;;;;;19.63;13.60;;;27.40;69.30;;;;;;4147823;28;20041;-70
2021/11/27 10:31:35;;;;;;;21.48;12.63;;;27.40;69.40;;;;;;4153894;28;20230;-70
2021/11/27 10:33:43;;;;;;;20.83;11.60;;;27.40;69.50;;;;;;4155734;28;20060;-70
2021/11/27 10:36:09;;;;;;;22.73;10.35;;;27.40;69.70;;;;;;4155792;28;20081;-71
2021/11/27 10:38:46;;;;;;;16.90;9.65;;;27.40;69.80;;;;;;4165804;28;20053;-70
2021/11/27 10:41:18;;;;;;;15.35;9.60;;;27.40;70.20;;;;;;4177027;28;20423;-71
2021/11/27 10:43:57;;;;;;;22.92;9.88;;;27.40;70.50;;;;;;4180170;28;20059;-70
2021/11/27 10:46:30;;;;;;;15.88;9.60;;;27.30;70.80;;;;;;4182327;28;20453;-71
2021/11/27 10:48:54;;;;;;;19.92;10.82;;;27.30;71.20;;;;;;4153482;28;20137;-71
2021/11/27 10:51:22;;;;;;;23.48;12.07;;;27.30;71.30;;;;;;4170705;28;20053;-71
2021/11/27 10:53:53;;;;;;;22.08;11.93;;;27.30;71.40;;;;;;4173818;28;20080;-72
2021/11/27 10:56:17;;;;;;;15.73;12.07;;;27.20;71.60;;;;;;4178204;28;20052;-71
2021/11/27 10:58:59;;;;;;;22.48;12.98;;;27.20;71.90;;;;;;4166710;28;20053;-72
2021/11/27 11:01:24;;;;;;;27.85;13.10;;;27.10;72.30;;;;;;4176818;28;20053;-72
2021/11/27 11:03:48;;;;;;;24.02;13.95;;;27.20;72.40;;;;;;4174851;28;20061;-71
2021/11/27 11:06:23;;;;;;;21.40;13.57;;;27.10;72.70;;;;;;4172697;28;20067;-72
2021/11/27 11:08:49;;;;;;;22.27;14.43;;;27.10;72.80;;;;;;4166744;28;20144;-72
2021/11/27 11:11:25;;;;;;;22.38;14.50;;;26.90;73.30;;;;;;4174319;28;20060;-72
2021/11/27 11:13:55;;;;;;;35.40;22.23;;;26.90;73.10;;;;;;4179349;28;20051;-72
2021/11/27 11:16:20;;;;;;;45.75;27.20;;;26.80;73.20;;;;;;4184943;28;20118;-73
2021/11/27 11:18:45;;;;;;;50.25;26.95;;;26.70;73.20;;;;;;4168192;28;20052;-72
2021/11/27 11:21:10;;;;;;;44.65;25.73;;;26.80;73.40;;;;;;4171295;28;20075;-72
2021/11/27 11:23:38;;;;;;;44.60;23.63;;;26.80;73.40;;;;;;4177390;28;20634;-72
2021/11/27 11:26:15;;;;;;;33.35;20.70;;;26.70;73.80;;;;;;4176863;28;20480;-72
2021/11/27 11:28:49;;;;;;;36.70;19.73;;;26.70;73.80;;;;;;4165289;28;20065;-72
2021/11/27 11:31:15;;;;;;;27.45;19.20;;;26.70;73.70;;;;;;4173193;28;20425;-72
2021/11/27 11:33:41;;;;;;;28.25;17.48;;;26.70;73.60;;;;;;4175747;28;20041;-72
2021/11/27 11:36:08;;;;;;;26.38;18.55;;;26.70;73.60;;;;;;4176301;28;20072;-72
2021/11/27 11:38:32;;;;;;;31.02;18.83;;;26.70;74.00;;;;;;4172804;28;21245;-71
2021/11/27 11:40:57;;;;;;;26.60;17.02;;;26.60;74.40;;;;;;4180203;28;20554;-72
2021/11/27 11:43:22;;;;;;;27.00;16.73;;;26.60;74.60;;;;;;4173278;28;20102;-72